sensor_id;sensor_type;location;lat;lon;timestamp;P1;durP1;ratioP1;P2;durP2;ratioP2
10977;SDS011;5542;48.272;10.794;2023-02-05T00:01:28;3.70;;;3.40;;
10977;SDS011;5542;48.272;10.794;2023-02-05T00:03:55;4.30;;;3.90;;
10977;SDS011;5542;48.272;10.794;2023-02-05T00:06:21;5.25;;;3.78;;
10977;SDS011;5542;48.272;10.794;2023-02-05T00:08:48;3.95;;;3.63;;
10977;SDS011;5542;48.272;10.794;2023-02-05T00:11:15;3.53;;;3.22;;
10977;SDS011;5542;48.272;10.794;2023-02-05T00:13:42;3.13;;;2.83;;
10977;SDS011;5542;48.272;10.794;2023-02-05T00:16:11;3.60;;;3.28;;
10977;SDS011;5542;48.272;10.794;2023-02-05T00:18:39;3.50;;;3.20;;
10977;SDS011;5542;48.272;10.794;2023-02-05T00:21:05;4.00;;;3.20;;
10977;SDS011;5542;48.272;10.794;2023-02-05T00:23:33;2.92;;;2.63;;
10977;SDS011;5542;48.272;10.794;2023-02-05T00:26:00;3.25;;;2.95;;
10977;SDS011;5542;48.272;10.794;2023-02-05T00:28:27;3.20;;;2.90;;
10977;SDS011;5542;48.272;10.794;2023-02-05T00:30:55;3.40;;;3.10;;
10977;SDS011;5542;48.272;10.794;2023-02-05T00:33:21;2.78;;;2.55;;
10977;SDS011;5542;48.272;10.794;2023-02-05T00:35:48;3.30;;;3.00;;
10977;SDS011;5542;48.272;10.794;2023-02-05T00:38:15;3.20;;;2.90;;
10977;SDS011;5542;48.272;10.794;2023-02-05T00:40:42;2.95;;;2.75;;
10977;SDS011;5542;48.272;10.794;2023-02-05T00:43:09;2.90;;;2.60;;
10977;SDS011;5542;48.272;10.794;2023-02-05T00:45:35;3.28;;;2.90;;
10977;SDS011;5542;48.272;10.794;2023-02-05T00:48:03;3.00;;;2.70;;
10977;SDS011;5542;48.272;10.794;2023-02-05T00:50:31;2.40;;;2.20;;
10977;SDS011;5542;48.272;10.794;2023-02-05T00:52:57;2.30;;;2.10;;
10977;SDS011;5542;48.272;10.794;2023-02-05T00:55:24;2.53;;;2.33;;
10977;SDS011;5542;48.272;10.794;2023-02-05T00:57:51;2.67;;;2.47;;
10977;SDS011;5542;48.272;10.794;2023-02-05T01:00:17;2.20;;;2.10;;
10977;SDS011;5542;48.272;10.794;2023-02-05T01:02:44;2.28;;;2.13;;
10977;SDS011;5542;48.272;10.794;2023-02-05T01:05:12;2.28;;;2.17;;
10977;SDS011;5542;48.272;10.794;2023-02-05T01:07:39;3.13;;;2.80;;
10977;SDS011;5542;48.272;10.794;2023-02-05T01:10:06;3.10;;;2.90;;
10977;SDS011;5542;48.272;10.794;2023-02-05T01:12:33;2.75;;;2.55;;
10977;SDS011;5542;48.272;10.794;2023-02-05T01:15:00;2.95;;;2.47;;
10977;SDS011;5542;48.272;10.794;2023-02-05T01:17:27;2.25;;;2.00;;
10977;SDS011;5542;48.272;10.794;2023-02-05T01:19:53;2.50;;;2.30;;
10977;SDS011;5542;48.272;10.794;2023-02-05T01:22:21;3.03;;;2.78;;
10977;SDS011;5542;48.272;10.794;2023-02-05T01:24:48;2.70;;;2.50;;
10977;SDS011;5542;48.272;10.794;2023-02-05T01:27:14;2.93;;;2.73;;
10977;SDS011;5542;48.272;10.794;2023-02-05T01:29:41;3.00;;;2.60;;
10977;SDS011;5542;48.272;10.794;2023-02-05T01:32:07;2.50;;;2.30;;
10977;SDS011;5542;48.272;10.794;2023-02-05T01:34:34;2.60;;;2.40;;
10977;SDS011;5542;48.272;10.794;2023-02-05T01:37:01;2.42;;;2.22;;
10977;SDS011;5542;48.272;10.794;2023-02-05T01:39:29;2.28;;;2.08;;
10977;SDS011;5542;48.272;10.794;2023-02-05T01:41:55;2.00;;;1.90;;
10977;SDS011;5542;48.272;10.794;2023-02-05T01:44:22;2.05;;;1.95;;
10977;SDS011;5542;48.272;10.794;2023-02-05T01:46:49;2.50;;;2.30;;
10977;SDS011;5542;48.272;10.794;2023-02-05T01:49:18;2.03;;;1.93;;
10977;SDS011;5542;48.272;10.794;2023-02-05T01:51:50;2.40;;;2.20;;
10977;SDS011;5542;48.272;10.794;2023-02-05T01:54:18;2.22;;;2.10;;
10977;SDS011;5542;48.272;10.794;2023-02-05T01:56:50;3.27;;;2.30;;
10977;SDS011;5542;48.272;10.794;2023-02-05T01:59:21;2.70;;;2.50;;
10977;SDS011;5542;48.272;10.794;2023-02-05T02:01:50;2.15;;;1.90;;
10977;SDS011;5542;48.272;10.794;2023-02-05T02:04:20;1.75;;;1.65;;
10977;SDS011;5542;48.272;10.794;2023-02-05T02:06:59;1.70;;;1.60;;
10977;SDS011;5542;48.272;10.794;2023-02-05T02:09:26;2.10;;;2.00;;
10977;SDS011;5542;48.272;10.794;2023-02-05T02:11:54;3.10;;;2.22;;
10977;SDS011;5542;48.272;10.794;2023-02-05T02:14:23;2.42;;;2.30;;
10977;SDS011;5542;48.272;10.794;2023-02-05T02:16:51;2.40;;;2.20;;
10977;SDS011;5542;48.272;10.794;2023-02-05T02:19:20;2.00;;;1.90;;
10977;SDS011;5542;48.272;10.794;2023-02-05T02:25:03;2.30;;;2.10;;
10977;SDS011;5542;48.272;10.794;2023-02-05T02:27:49;2.80;;;2.60;;
10977;SDS011;5542;48.272;10.794;2023-02-05T02:30:21;2.55;;;2.35;;
10977;SDS011;5542;48.272;10.794;2023-02-05T02:32:57;2.40;;;2.30;;
10977;SDS011;5542;48.272;10.794;2023-02-05T02:35:33;1.85;;;1.75;;
10977;SDS011;5542;48.272;10.794;2023-02-05T02:38:07;2.30;;;2.10;;
10977;SDS011;5542;48.272;10.794;2023-02-05T02:40:39;2.45;;;2.25;;
10977;SDS011;5542;48.272;10.794;2023-02-05T02:43:12;2.38;;;2.17;;
10977;SDS011;5542;48.272;10.794;2023-02-05T02:45:43;2.42;;;2.30;;
10977;SDS011;5542;48.272;10.794;2023-02-05T02:48:14;2.30;;;2.20;;
10977;SDS011;5542;48.272;10.794;2023-02-05T02:50:44;2.10;;;2.00;;
10977;SDS011;5542;48.272;10.794;2023-02-05T02:53:15;2.42;;;2.22;;
10977;SDS011;5542;48.272;10.794;2023-02-05T02:55:44;2.05;;;1.95;;
10977;SDS011;5542;48.272;10.794;2023-02-05T02:58:16;1.70;;;1.60;;
10977;SDS011;5542;48.272;10.794;2023-02-05T03:00:47;2.25;;;2.05;;
10977;SDS011;5542;48.272;10.794;2023-02-05T03:03:14;2.40;;;2.20;;
10977;SDS011;5542;48.272;10.794;2023-02-05T03:05:45;1.80;;;1.70;;
10977;SDS011;5542;48.272;10.794;2023-02-05T03:08:16;2.83;;;2.63;;
10977;SDS011;5542;48.272;10.794;2023-02-05T03:10:47;2.03;;;1.80;;
10977;SDS011;5542;48.272;10.794;2023-02-05T03:13:18;2.05;;;1.90;;
10977;SDS011;5542;48.272;10.794;2023-02-05T03:15:44;2.20;;;2.00;;
10977;SDS011;5542;48.272;10.794;2023-02-05T03:18:12;2.17;;;2.03;;
10977;SDS011;5542;48.272;10.794;2023-02-05T03:20:41;2.22;;;2.10;;
10977;SDS011;5542;48.272;10.794;2023-02-05T03:23:12;2.58;;;2.38;;
10977;SDS011;5542;48.272;10.794;2023-02-05T03:25:38;2.67;;;2.42;;
10977;SDS011;5542;48.272;10.794;2023-02-05T03:28:05;2.77;;;2.57;;
10977;SDS011;5542;48.272;10.794;2023-02-05T03:30:35;2.88;;;2.50;;
10977;SDS011;5542;48.272;10.794;2023-02-05T03:33:11;2.25;;;2.05;;
10977;SDS011;5542;48.272;10.794;2023-02-05T03:35:50;2.30;;;2.10;;
10977;SDS011;5542;48.272;10.794;2023-02-05T03:38:28;2.17;;;2.00;;
10977;SDS011;5542;48.272;10.794;2023-02-05T03:41:06;3.30;;;2.72;;
10977;SDS011;5542;48.272;10.794;2023-02-05T03:43:44;3.00;;;2.70;;
10977;SDS011;5542;48.272;10.794;2023-02-05T03:46:23;2.72;;;2.33;;
10977;SDS011;5542;48.272;10.794;2023-02-05T03:49:00;2.30;;;2.10;;
10977;SDS011;5542;48.272;10.794;2023-02-05T03:51:34;3.40;;;2.30;;
10977;SDS011;5542;48.272;10.794;2023-02-05T03:54:07;3.22;;;2.80;;
10977;SDS011;5542;48.272;10.794;2023-02-05T03:56:41;3.28;;;2.97;;
10977;SDS011;5542;48.272;10.794;2023-02-05T03:59:13;3.28;;;2.97;;
10977;SDS011;5542;48.272;10.794;2023-02-05T04:01:43;2.60;;;2.40;;
10977;SDS011;5542;48.272;10.794;2023-02-05T04:04:10;2.78;;;2.45;;
10977;SDS011;5542;48.272;10.794;2023-02-05T04:06:37;2.50;;;2.30;;
10977;SDS011;5542;48.272;10.794;2023-02-05T04:09:04;2.70;;;2.50;;
10977;SDS011;5542;48.272;10.794;2023-02-05T04:11:30;3.20;;;2.60;;
10977;SDS011;5542;48.272;10.794;2023-02-05T04:13:57;2.97;;;2.60;;
10977;SDS011;5542;48.272;10.794;2023-02-05T04:16:24;3.10;;;2.70;;
10977;SDS011;5542;48.272;10.794;2023-02-05T04:18:52;4.17;;;3.20;;
10977;SDS011;5542;48.272;10.794;2023-02-05T04:21:19;2.63;;;2.42;;
10977;SDS011;5542;48.272;10.794;2023-02-05T04:23:45;3.17;;;2.75;;
10977;SDS011;5542;48.272;10.794;2023-02-05T04:26:12;3.28;;;2.70;;
10977;SDS011;5542;48.272;10.794;2023-02-05T04:28:38;3.40;;;3.10;;
10977;SDS011;5542;48.272;10.794;2023-02-05T04:31:05;3.30;;;3.00;;
10977;SDS011;5542;48.272;10.794;2023-02-05T04:33:32;3.35;;;3.03;;
10977;SDS011;5542;48.272;10.794;2023-02-05T04:36:00;3.15;;;2.85;;
10977;SDS011;5542;48.272;10.794;2023-02-05T04:38:27;4.07;;;3.30;;
10977;SDS011;5542;48.272;10.794;2023-02-05T04:40:53;3.95;;;3.25;;
10977;SDS011;5542;48.272;10.794;2023-02-05T04:43:20;3.33;;;3.03;;
10977;SDS011;5542;48.272;10.794;2023-02-05T04:45:47;4.07;;;2.90;;
10977;SDS011;5542;48.272;10.794;2023-02-05T04:48:13;4.43;;;3.20;;
10977;SDS011;5542;48.272;10.794;2023-02-05T04:50:40;3.30;;;3.00;;
10977;SDS011;5542;48.272;10.794;2023-02-05T04:53:08;3.33;;;3.00;;
10977;SDS011;5542;48.272;10.794;2023-02-05T04:55:35;3.35;;;3.00;;
10977;SDS011;5542;48.272;10.794;2023-02-05T04:58:01;3.50;;;3.00;;
10977;SDS011;5542;48.272;10.794;2023-02-05T05:00:28;5.60;;;3.92;;
10977;SDS011;5542;48.272;10.794;2023-02-05T05:02:55;10.70;;;6.80;;
10977;SDS011;5542;48.272;10.794;2023-02-05T05:05:22;8.73;;;5.80;;
10977;SDS011;5542;48.272;10.794;2023-02-05T05:07:49;8.95;;;5.50;;
10977;SDS011;5542;48.272;10.794;2023-02-05T05:10:17;7.57;;;4.57;;
10977;SDS011;5542;48.272;10.794;2023-02-05T05:12:43;7.10;;;4.43;;
10977;SDS011;5542;48.272;10.794;2023-02-05T05:15:10;5.93;;;4.30;;
10977;SDS011;5542;48.272;10.794;2023-02-05T05:17:36;5.43;;;4.00;;
10977;SDS011;5542;48.272;10.794;2023-02-05T05:20:03;5.40;;;4.07;;
10977;SDS011;5542;48.272;10.794;2023-02-05T05:22:30;4.95;;;3.67;;
10977;SDS011;5542;48.272;10.794;2023-02-05T05:24:57;3.95;;;3.47;;
10977;SDS011;5542;48.272;10.794;2023-02-05T05:27:25;3.72;;;3.17;;
10977;SDS011;5542;48.272;10.794;2023-02-05T05:29:51;3.70;;;3.00;;
10977;SDS011;5542;48.272;10.794;2023-02-05T05:32:18;3.20;;;2.90;;
10977;SDS011;5542;48.272;10.794;2023-02-05T05:34:44;3.17;;;2.88;;
10977;SDS011;5542;48.272;10.794;2023-02-05T05:37:11;3.40;;;3.10;;
10977;SDS011;5542;48.272;10.794;2023-02-05T05:39:37;3.47;;;3.17;;
10977;SDS011;5542;48.272;10.794;2023-02-05T05:42:21;4.05;;;3.65;;
10977;SDS011;5542;48.272;10.794;2023-02-05T05:45:07;5.97;;;4.10;;
10977;SDS011;5542;48.272;10.794;2023-02-05T05:47:33;3.80;;;3.50;;
10977;SDS011;5542;48.272;10.794;2023-02-05T05:50:00;3.38;;;3.08;;
10977;SDS011;5542;48.272;10.794;2023-02-05T05:52:27;3.70;;;3.40;;
10977;SDS011;5542;48.272;10.794;2023-02-05T05:54:53;4.03;;;3.63;;
10977;SDS011;5542;48.272;10.794;2023-02-05T05:57:20;4.43;;;3.72;;
10977;SDS011;5542;48.272;10.794;2023-02-05T05:59:46;4.13;;;3.72;;
10977;SDS011;5542;48.272;10.794;2023-02-05T06:02:14;3.83;;;3.45;;
10977;SDS011;5542;48.272;10.794;2023-02-05T06:04:41;3.05;;;2.85;;
10977;SDS011;5542;48.272;10.794;2023-02-05T06:07:07;3.22;;;2.95;;
10977;SDS011;5542;48.272;10.794;2023-02-05T06:09:34;4.03;;;3.10;;
10977;SDS011;5542;48.272;10.794;2023-02-05T06:12:00;3.50;;;3.20;;
10977;SDS011;5542;48.272;10.794;2023-02-05T06:14:27;4.63;;;3.63;;
10977;SDS011;5542;48.272;10.794;2023-02-05T06:16:53;3.72;;;3.40;;
10977;SDS011;5542;48.272;10.794;2023-02-05T06:19:21;4.72;;;3.50;;
10977;SDS011;5542;48.272;10.794;2023-02-05T06:21:48;3.25;;;2.95;;
10977;SDS011;5542;48.272;10.794;2023-02-05T06:24:15;3.33;;;3.03;;
10977;SDS011;5542;48.272;10.794;2023-02-05T06:26:42;3.22;;;2.92;;
10977;SDS011;5542;48.272;10.794;2023-02-05T06:29:09;3.40;;;3.10;;
10977;SDS011;5542;48.272;10.794;2023-02-05T06:31:35;3.10;;;2.80;;
10977;SDS011;5542;48.272;10.794;2023-02-05T06:34:02;3.00;;;2.80;;
10977;SDS011;5542;48.272;10.794;2023-02-05T06:36:30;3.60;;;2.92;;
10977;SDS011;5542;48.272;10.794;2023-02-05T06:38:56;3.58;;;3.28;;
10977;SDS011;5542;48.272;10.794;2023-02-05T06:41:23;3.42;;;3.13;;
10977;SDS011;5542;48.272;10.794;2023-02-05T06:43:49;3.45;;;3.15;;
10977;SDS011;5542;48.272;10.794;2023-02-05T06:46:16;3.45;;;3.15;;
10977;SDS011;5542;48.272;10.794;2023-02-05T06:48:43;3.60;;;3.30;;
10977;SDS011;5542;48.272;10.794;2023-02-05T06:51:09;3.13;;;2.60;;
10977;SDS011;5542;48.272;10.794;2023-02-05T06:53:38;3.50;;;3.20;;
10977;SDS011;5542;48.272;10.794;2023-02-05T06:56:05;3.00;;;2.70;;
10977;SDS011;5542;48.272;10.794;2023-02-05T06:58:32;3.17;;;2.90;;
10977;SDS011;5542;48.272;10.794;2023-02-05T07:00:59;3.17;;;2.92;;
10977;SDS011;5542;48.272;10.794;2023-02-05T07:03:26;2.95;;;2.75;;
10977;SDS011;5542;48.272;10.794;2023-02-05T07:05:53;2.75;;;2.55;;
10977;SDS011;5542;48.272;10.794;2023-02-05T07:08:19;3.10;;;2.85;;
10977;SDS011;5542;48.272;10.794;2023-02-05T07:10:47;3.08;;;2.78;;
10977;SDS011;5542;48.272;10.794;2023-02-05T07:13:14;3.27;;;2.97;;
10977;SDS011;5542;48.272;10.794;2023-02-05T07:15:40;3.60;;;3.30;;
10977;SDS011;5542;48.272;10.794;2023-02-05T07:18:07;3.37;;;3.07;;
10977;SDS011;5542;48.272;10.794;2023-02-05T07:20:33;3.00;;;2.80;;
10977;SDS011;5542;48.272;10.794;2023-02-05T07:23:00;3.10;;;2.90;;
10977;SDS011;5542;48.272;10.794;2023-02-05T07:25:26;3.67;;;3.38;;
10977;SDS011;5542;48.272;10.794;2023-02-05T07:27:57;3.20;;;2.90;;
10977;SDS011;5542;48.272;10.794;2023-02-05T07:30:25;3.03;;;2.80;;
10977;SDS011;5542;48.272;10.794;2023-02-05T07:32:51;3.00;;;2.80;;
10977;SDS011;5542;48.272;10.794;2023-02-05T07:35:18;3.40;;;3.10;;
10977;SDS011;5542;48.272;10.794;2023-02-05T07:37:44;3.77;;;3.47;;
10977;SDS011;5542;48.272;10.794;2023-02-05T07:40:11;3.53;;;3.22;;
10977;SDS011;5542;48.272;10.794;2023-02-05T07:42:38;7.07;;;6.22;;
10977;SDS011;5542;48.272;10.794;2023-02-05T07:45:06;5.00;;;4.60;;
10977;SDS011;5542;48.272;10.794;2023-02-05T07:47:33;8.30;;;7.50;;
10977;SDS011;5542;48.272;10.794;2023-02-05T07:50:00;5.63;;;5.13;;
10977;SDS011;5542;48.272;10.794;2023-02-05T07:52:26;5.10;;;4.65;;
10977;SDS011;5542;48.272;10.794;2023-02-05T07:54:53;4.18;;;3.88;;
10977;SDS011;5542;48.272;10.794;2023-02-05T07:57:19;21.67;;;14.82;;
10977;SDS011;5542;48.272;10.794;2023-02-05T07:59:46;9.70;;;7.70;;
10977;SDS011;5542;48.272;10.794;2023-02-05T08:02:14;5.37;;;4.83;;
10977;SDS011;5542;48.272;10.794;2023-02-05T08:04:41;4.18;;;3.78;;
10977;SDS011;5542;48.272;10.794;2023-02-05T08:07:08;4.10;;;3.80;;
10977;SDS011;5542;48.272;10.794;2023-02-05T08:09:36;3.47;;;3.17;;
10977;SDS011;5542;48.272;10.794;2023-02-05T08:12:03;4.30;;;3.90;;
10977;SDS011;5542;48.272;10.794;2023-02-05T08:14:30;5.30;;;4.80;;
10977;SDS011;5542;48.272;10.794;2023-02-05T08:16:57;4.57;;;4.05;;
10977;SDS011;5542;48.272;10.794;2023-02-05T08:19:25;4.93;;;4.43;;
10977;SDS011;5542;48.272;10.794;2023-02-05T08:21:52;4.63;;;4.22;;
10977;SDS011;5542;48.272;10.794;2023-02-05T08:24:18;9.80;;;7.93;;
10977;SDS011;5542;48.272;10.794;2023-02-05T08:26:45;42.08;;;23.73;;
10977;SDS011;5542;48.272;10.794;2023-02-05T08:29:12;18.67;;;12.82;;
10977;SDS011;5542;48.272;10.794;2023-02-05T08:31:39;5.95;;;5.32;;
10977;SDS011;5542;48.272;10.794;2023-02-05T08:34:05;59.30;;;30.40;;
10977;SDS011;5542;48.272;10.794;2023-02-05T08:36:33;42.65;;;26.90;;
10977;SDS011;5542;48.272;10.794;2023-02-05T08:39:00;16.42;;;11.10;;
10977;SDS011;5542;48.272;10.794;2023-02-05T08:41:26;23.13;;;14.57;;
10977;SDS011;5542;48.272;10.794;2023-02-05T08:43:53;7.93;;;6.38;;
10977;SDS011;5542;48.272;10.794;2023-02-05T08:46:20;9.52;;;7.30;;
10977;SDS011;5542;48.272;10.794;2023-02-05T08:48:50;21.17;;;13.03;;
10977;SDS011;5542;48.272;10.794;2023-02-05T08:51:17;8.48;;;6.95;;
10977;SDS011;5542;48.272;10.794;2023-02-05T08:53:46;10.35;;;8.43;;
10977;SDS011;5542;48.272;10.794;2023-02-05T08:56:12;8.85;;;7.57;;
10977;SDS011;5542;48.272;10.794;2023-02-05T08:58:40;8.45;;;7.05;;
10977;SDS011;5542;48.272;10.794;2023-02-05T09:01:07;7.15;;;6.45;;
10977;SDS011;5542;48.272;10.794;2023-02-05T09:03:35;7.57;;;6.20;;
10977;SDS011;5542;48.272;10.794;2023-02-05T09:06:03;6.63;;;5.37;;
10977;SDS011;5542;48.272;10.794;2023-02-05T09:08:31;10.77;;;6.80;;
10977;SDS011;5542;48.272;10.794;2023-02-05T09:10:59;6.40;;;5.45;;
10977;SDS011;5542;48.272;10.794;2023-02-05T09:13:25;6.37;;;5.37;;
10977;SDS011;5542;48.272;10.794;2023-02-05T09:15:52;6.03;;;5.38;;
10977;SDS011;5542;48.272;10.794;2023-02-05T09:18:19;5.80;;;5.20;;
10977;SDS011;5542;48.272;10.794;2023-02-05T09:20:47;8.53;;;7.00;;
10977;SDS011;5542;48.272;10.794;2023-02-05T09:23:15;6.20;;;5.60;;
10977;SDS011;5542;48.272;10.794;2023-02-05T09:25:43;7.35;;;6.07;;
10977;SDS011;5542;48.272;10.794;2023-02-05T09:28:12;7.07;;;6.28;;
10977;SDS011;5542;48.272;10.794;2023-02-05T09:30:40;5.32;;;4.82;;
10977;SDS011;5542;48.272;10.794;2023-02-05T09:33:08;5.88;;;5.28;;
10977;SDS011;5542;48.272;10.794;2023-02-05T09:35:35;6.00;;;5.40;;
10977;SDS011;5542;48.272;10.794;2023-02-05T09:38:02;6.00;;;5.40;;
10977;SDS011;5542;48.272;10.794;2023-02-05T09:40:31;5.38;;;4.85;;
10977;SDS011;5542;48.272;10.794;2023-02-05T09:43:04;6.40;;;5.50;;
10977;SDS011;5542;48.272;10.794;2023-02-05T09:45:46;5.95;;;5.35;;
10977;SDS011;5542;48.272;10.794;2023-02-05T09:51:13;7.10;;;5.80;;
10977;SDS011;5542;48.272;10.794;2023-02-05T09:53:43;6.68;;;6.05;;
10977;SDS011;5542;48.272;10.794;2023-02-05T09:56:13;6.72;;;5.85;;
10977;SDS011;5542;48.272;10.794;2023-02-05T09:58:44;8.02;;;7.00;;
10977;SDS011;5542;48.272;10.794;2023-02-05T10:01:15;6.47;;;5.85;;
10977;SDS011;5542;48.272;10.794;2023-02-05T10:03:47;6.30;;;5.60;;
10977;SDS011;5542;48.272;10.794;2023-02-05T10:06:36;5.60;;;5.00;;
10977;SDS011;5542;48.272;10.794;2023-02-05T10:09:25;6.45;;;5.75;;
10977;SDS011;5542;48.272;10.794;2023-02-05T10:12:10;8.18;;;6.22;;
10977;SDS011;5542;48.272;10.794;2023-02-05T10:14:46;6.35;;;5.00;;
10977;SDS011;5542;48.272;10.794;2023-02-05T10:17:24;5.90;;;5.35;;
10977;SDS011;5542;48.272;10.794;2023-02-05T10:20:03;7.47;;;5.63;;
10977;SDS011;5542;48.272;10.794;2023-02-05T10:22:55;7.77;;;6.27;;
10977;SDS011;5542;48.272;10.794;2023-02-05T10:25:41;6.15;;;5.35;;
10977;SDS011;5542;48.272;10.794;2023-02-05T10:28:23;5.68;;;4.90;;
10977;SDS011;5542;48.272;10.794;2023-02-05T10:31:01;6.28;;;5.00;;
10977;SDS011;5542;48.272;10.794;2023-02-05T10:33:37;6.90;;;5.97;;
10977;SDS011;5542;48.272;10.794;2023-02-05T10:36:09;6.60;;;5.00;;
10977;SDS011;5542;48.272;10.794;2023-02-05T10:38:39;6.22;;;5.60;;
10977;SDS011;5542;48.272;10.794;2023-02-05T10:41:12;8.00;;;5.23;;
10977;SDS011;5542;48.272;10.794;2023-02-05T10:43:46;10.07;;;7.95;;
10977;SDS011;5542;48.272;10.794;2023-02-05T10:46:18;6.57;;;5.68;;
10977;SDS011;5542;48.272;10.794;2023-02-05T10:48:45;6.25;;;4.75;;
10977;SDS011;5542;48.272;10.794;2023-02-05T10:51:15;6.60;;;5.95;;
10977;SDS011;5542;48.272;10.794;2023-02-05T10:53:45;6.35;;;5.30;;
10977;SDS011;5542;48.272;10.794;2023-02-05T10:56:13;5.10;;;4.60;;
10977;SDS011;5542;48.272;10.794;2023-02-05T10:58:43;5.15;;;4.63;;
10977;SDS011;5542;48.272;10.794;2023-02-05T11:01:13;5.57;;;5.03;;
10977;SDS011;5542;48.272;10.794;2023-02-05T11:03:47;5.90;;;4.68;;
10977;SDS011;5542;48.272;10.794;2023-02-05T11:06:17;4.97;;;4.47;;
10977;SDS011;5542;48.272;10.794;2023-02-05T11:08:46;5.22;;;4.72;;
10977;SDS011;5542;48.272;10.794;2023-02-05T11:11:23;7.75;;;5.38;;
10977;SDS011;5542;48.272;10.794;2023-02-05T11:13:53;5.40;;;4.70;;
10977;SDS011;5542;48.272;10.794;2023-02-05T11:16:22;5.88;;;4.75;;
10977;SDS011;5542;48.272;10.794;2023-02-05T11:19:01;5.33;;;4.53;;
10977;SDS011;5542;48.272;10.794;2023-02-05T11:21:47;5.55;;;4.80;;
10977;SDS011;5542;48.272;10.794;2023-02-05T11:24:23;5.82;;;4.95;;
10977;SDS011;5542;48.272;10.794;2023-02-05T11:29:54;6.13;;;4.00;;
10977;SDS011;5542;48.272;10.794;2023-02-05T11:32:30;4.63;;;3.97;;
10977;SDS011;5542;48.272;10.794;2023-02-05T11:35:11;6.80;;;5.00;;
10977;SDS011;5542;48.272;10.794;2023-02-05T11:37:43;4.47;;;4.07;;
10977;SDS011;5542;48.272;10.794;2023-02-05T11:40:16;6.95;;;5.15;;
10977;SDS011;5542;48.272;10.794;2023-02-05T11:42:46;9.95;;;6.68;;
10977;SDS011;5542;48.272;10.794;2023-02-05T11:45:16;6.57;;;4.55;;
10977;SDS011;5542;48.272;10.794;2023-02-05T11:47:44;6.88;;;4.97;;
10977;SDS011;5542;48.272;10.794;2023-02-05T11:50:19;5.88;;;4.47;;
10977;SDS011;5542;48.272;10.794;2023-02-05T11:52:48;6.53;;;4.93;;
10977;SDS011;5542;48.272;10.794;2023-02-05T11:55:22;10.63;;;6.20;;
10977;SDS011;5542;48.272;10.794;2023-02-05T11:57:56;5.43;;;4.30;;
10977;SDS011;5542;48.272;10.794;2023-02-05T12:00:24;6.93;;;5.38;;
10977;SDS011;5542;48.272;10.794;2023-02-05T12:03:00;15.88;;;9.25;;
10977;SDS011;5542;48.272;10.794;2023-02-05T12:05:31;9.45;;;6.78;;
10977;SDS011;5542;48.272;10.794;2023-02-05T12:08:01;6.45;;;5.35;;
10977;SDS011;5542;48.272;10.794;2023-02-05T12:10:34;6.80;;;5.90;;
10977;SDS011;5542;48.272;10.794;2023-02-05T12:13:10;6.05;;;4.57;;
10977;SDS011;5542;48.272;10.794;2023-02-05T12:15:44;6.68;;;4.70;;
10977;SDS011;5542;48.272;10.794;2023-02-05T12:18:21;8.70;;;4.85;;
10977;SDS011;5542;48.272;10.794;2023-02-05T12:21:02;9.73;;;6.13;;
10977;SDS011;5542;48.272;10.794;2023-02-05T12:26:47;6.70;;;5.43;;
10977;SDS011;5542;48.272;10.794;2023-02-05T12:29:26;6.47;;;5.20;;
10977;SDS011;5542;48.272;10.794;2023-02-05T12:32:13;6.25;;;4.20;;
10977;SDS011;5542;48.272;10.794;2023-02-05T12:34:56;12.70;;;8.10;;
10977;SDS011;5542;48.272;10.794;2023-02-05T12:37:39;9.13;;;5.85;;
10977;SDS011;5542;48.272;10.794;2023-02-05T12:40:14;6.53;;;5.28;;
10977;SDS011;5542;48.272;10.794;2023-02-05T12:43:00;7.00;;;4.47;;
10977;SDS011;5542;48.272;10.794;2023-02-05T12:45:34;4.35;;;3.63;;
10977;SDS011;5542;48.272;10.794;2023-02-05T12:48:17;4.20;;;3.30;;
10977;SDS011;5542;48.272;10.794;2023-02-05T12:51:03;5.20;;;3.53;;
10977;SDS011;5542;48.272;10.794;2023-02-05T12:53:53;6.43;;;4.60;;
10977;SDS011;5542;48.272;10.794;2023-02-05T12:56:44;4.57;;;3.55;;
10977;SDS011;5542;48.272;10.794;2023-02-05T12:59:21;6.90;;;4.28;;
10977;SDS011;5542;48.272;10.794;2023-02-05T13:01:57;4.65;;;3.80;;
10977;SDS011;5542;48.272;10.794;2023-02-05T13:04:27;5.70;;;3.90;;
10977;SDS011;5542;48.272;10.794;2023-02-05T13:06:59;6.15;;;4.80;;
10977;SDS011;5542;48.272;10.794;2023-02-05T13:09:39;4.43;;;4.00;;
10977;SDS011;5542;48.272;10.794;2023-02-05T13:12:11;8.88;;;5.40;;
10977;SDS011;5542;48.272;10.794;2023-02-05T13:14:41;8.60;;;5.93;;
10977;SDS011;5542;48.272;10.794;2023-02-05T13:17:11;8.32;;;5.45;;
10977;SDS011;5542;48.272;10.794;2023-02-05T13:19:42;7.22;;;5.03;;
10977;SDS011;5542;48.272;10.794;2023-02-05T13:22:14;6.78;;;4.97;;
10977;SDS011;5542;48.272;10.794;2023-02-05T13:25:19;8.13;;;5.05;;
10977;SDS011;5542;48.272;10.794;2023-02-05T13:28:15;6.85;;;4.18;;
10977;SDS011;5542;48.272;10.794;2023-02-05T13:31:15;8.55;;;5.53;;
10977;SDS011;5542;48.272;10.794;2023-02-05T13:33:46;10.82;;;7.00;;
10977;SDS011;5542;48.272;10.794;2023-02-05T13:36:18;7.07;;;3.60;;
10977;SDS011;5542;48.272;10.794;2023-02-05T13:39:12;4.00;;;3.40;;
10977;SDS011;5542;48.272;10.794;2023-02-05T13:45:02;6.90;;;4.30;;
10977;SDS011;5542;48.272;10.794;2023-02-05T13:47:53;7.05;;;4.53;;
10977;SDS011;5542;48.272;10.794;2023-02-05T13:50:51;9.43;;;5.20;;
10977;SDS011;5542;48.272;10.794;2023-02-05T13:53:47;11.73;;;7.38;;
10977;SDS011;5542;48.272;10.794;2023-02-05T13:56:25;14.63;;;8.05;;
10977;SDS011;5542;48.272;10.794;2023-02-05T13:59:10;7.03;;;4.80;;
10977;SDS011;5542;48.272;10.794;2023-02-05T14:01:44;6.18;;;3.90;;
10977;SDS011;5542;48.272;10.794;2023-02-05T14:04:18;10.73;;;6.87;;
10977;SDS011;5542;48.272;10.794;2023-02-05T14:06:53;7.50;;;5.20;;
10977;SDS011;5542;48.272;10.794;2023-02-05T14:09:25;7.50;;;5.05;;
10977;SDS011;5542;48.272;10.794;2023-02-05T14:11:58;11.17;;;7.37;;
10977;SDS011;5542;48.272;10.794;2023-02-05T14:14:28;13.18;;;7.65;;
10977;SDS011;5542;48.272;10.794;2023-02-05T14:16:58;12.63;;;7.85;;
10977;SDS011;5542;48.272;10.794;2023-02-05T14:19:26;12.10;;;6.97;;
10977;SDS011;5542;48.272;10.794;2023-02-05T14:22:38;67.35;;;30.15;;
10977;SDS011;5542;48.272;10.794;2023-02-05T14:31:08;18.42;;;11.70;;
10977;SDS011;5542;48.272;10.794;2023-02-05T14:34:27;7.35;;;6.22;;
10977;SDS011;5542;48.272;10.794;2023-02-05T14:40:19;11.18;;;6.72;;
10977;SDS011;5542;48.272;10.794;2023-02-05T14:42:48;10.10;;;6.35;;
10977;SDS011;5542;48.272;10.794;2023-02-05T14:45:17;10.95;;;7.82;;
10977;SDS011;5542;48.272;10.794;2023-02-05T14:47:47;13.23;;;7.70;;
10977;SDS011;5542;48.272;10.794;2023-02-05T14:50:18;9.10;;;6.00;;
10977;SDS011;5542;48.272;10.794;2023-02-05T14:52:47;14.05;;;8.45;;
10977;SDS011;5542;48.272;10.794;2023-02-05T14:55:18;9.73;;;6.43;;
10977;SDS011;5542;48.272;10.794;2023-02-05T14:57:48;8.40;;;5.53;;
10977;SDS011;5542;48.272;10.794;2023-02-05T15:00:25;7.45;;;5.60;;
10977;SDS011;5542;48.272;10.794;2023-02-05T15:05:52;6.28;;;5.05;;
10977;SDS011;5542;48.272;10.794;2023-02-05T15:11:10;10.65;;;6.38;;
10977;SDS011;5542;48.272;10.794;2023-02-05T15:13:43;11.27;;;5.90;;
10977;SDS011;5542;48.272;10.794;2023-02-05T15:19:55;12.40;;;7.17;;
10977;SDS011;5542;48.272;10.794;2023-02-05T15:22:27;9.07;;;5.90;;
10977;SDS011;5542;48.272;10.794;2023-02-05T15:25:00;14.40;;;8.18;;
10977;SDS011;5542;48.272;10.794;2023-02-05T15:27:29;7.53;;;5.75;;
10977;SDS011;5542;48.272;10.794;2023-02-05T15:30:06;5.57;;;4.30;;
10977;SDS011;5542;48.272;10.794;2023-02-05T15:32:42;12.98;;;7.43;;
10977;SDS011;5542;48.272;10.794;2023-02-05T15:35:14;14.75;;;8.73;;
10977;SDS011;5542;48.272;10.794;2023-02-05T15:37:47;7.40;;;5.75;;
10977;SDS011;5542;48.272;10.794;2023-02-05T15:40:17;10.50;;;6.97;;
10977;SDS011;5542;48.272;10.794;2023-02-05T15:42:50;8.48;;;6.00;;